Time;durP1;ratioP1;P1;durP2;ratioP2;P2;SDS_P1;SDS_P2;PMS_P1;PMS_P2;Temp;Humidity;BMP_temperature;BMP_pressure;BME280_temperature;BME280_humidity;BME280_pressure;Samples;Min_cycle;Max_cycle;Signal;HPM_P1;HPM_P2
2022/07/06 00:01:09;;;;;;;4.60;1.93;;;;;;;;;;5012482;28;20207;-74
2022/07/06 00:03:34;;;;;;;5.80;2.03;;;;;;;;;;4995074;28;20656;-74
2022/07/06 00:06:00;;;;;;;4.03;2.10;;;;;;;;;;5010152;28;20198;-74
2022/07/06 00:08:25;;;;;;;2.17;1.93;;;;;;;;;;5011218;28;20257;-74
2022/07/06 00:10:50;;;;;;;3.67;2.20;;;;;;;;;;5013105;28;20199;-73
2022/07/06 00:13:15;;;;;;;5.57;1.90;;;;;;;;;;5010693;28;20175;-74
2022/07/06 00:15:40;;;;;;;4.60;2.67;;;;;;;;;;5011035;28;20282;-74
2022/07/06 00:18:06;;;;;;;5.43;2.20;;;;;;;;;;5009646;28;20199;-75
2022/07/06 00:20:31;;;;;;;4.20;2.07;;;;;;;;;;5011384;28;20202;-74
2022/07/06 00:22:56;;;;;;;2.00;1.80;;;;;;;;;;5008545;28;20846;-74
2022/07/06 00:25:21;;;;;;;2.47;1.73;;;;;;;;;;5013745;28;20581;-74
2022/07/06 00:27:46;;;;;;;2.67;1.80;;;;;;;;;;5010360;28;20656;-74
2022/07/06 00:30:12;;;;;;;3.47;2.27;;;;;;;;;;5012471;28;20222;-74
2022/07/06 00:32:37;;;;;;;3.47;2.00;;;;;;;;;;5012926;28;20187;-74
2022/07/06 00:35:02;;;;;;;2.67;2.23;;;;;;;;;;5013118;28;20194;-74
2022/07/06 00:37:28;;;;;;;3.57;2.03;;;;;;;;;;5011897;28;20345;-74
2022/07/06 00:39:53;;;;;;;3.83;2.07;;;;;;;;;;5010490;28;20185;-74
2022/07/06 00:42:18;;;;;;;3.47;2.00;;;;;;;;;;5007664;28;20705;-74
2022/07/06 00:44:43;;;;;;;2.60;1.77;;;;;;;;;;5008989;28;20172;-74
2022/07/06 00:47:08;;;;;;;2.40;1.90;;;;;;;;;;5009703;28;20191;-74
2022/07/06 00:52:18;;;;;;;3.60;2.27;;;;;;;;;;5005834;28;20266;-74
2022/07/06 00:54:43;;;;;;;3.73;2.20;;;;;;;;;;5013024;28;20254;-74
2022/07/06 00:57:09;;;;;;;4.80;2.57;;;;;;;;;;5012488;28;20206;-74
2022/07/06 00:59:34;;;;;;;4.07;2.10;;;;;;;;;;5012071;28;20653;-74
2022/07/06 01:02:00;;;;;;;5.10;2.20;;;;;;;;;;5011453;28;20222;-74
2022/07/06 01:04:25;;;;;;;3.67;2.33;;;;;;;;;;5009963;28;20183;-74
2022/07/06 01:06:50;;;;;;;3.53;2.20;;;;;;;;;;5010659;28;20562;-74
2022/07/06 01:09:16;;;;;;;2.77;1.93;;;;;;;;;;5011244;28;20187;-74
2022/07/06 01:11:41;;;;;;;2.83;2.33;;;;;;;;;;5009810;28;20791;-74
2022/07/06 01:14:07;;;;;;;6.33;2.37;;;;;;;;;;5009252;28;20545;-74
2022/07/06 01:16:32;;;;;;;3.03;1.90;;;;;;;;;;5011273;28;20233;-74
2022/07/06 01:18:57;;;;;;;6.53;2.20;;;;;;;;;;5008127;28;20210;-75
2022/07/06 01:21:22;;;;;;;5.97;2.07;;;;;;;;;;5008977;28;20711;-75
2022/07/06 01:23:47;;;;;;;5.43;2.53;;;;;;;;;;5009833;28;20183;-73
2022/07/06 01:26:15;;;;;;;3.10;1.93;;;;;;;;;;5007575;28;20171;-74
2022/07/06 01:28:40;;;;;;;2.30;2.10;;;;;;;;;;5010919;28;20187;-74
2022/07/06 01:31:13;;;;;;;6.13;2.83;;;;;;;;;;5011490;28;20209;-74
2022/07/06 01:33:38;;;;;;;3.30;2.17;;;;;;;;;;4999254;28;20695;-74
2022/07/06 01:36:03;;;;;;;3.07;1.90;;;;;;;;;;5011210;28;20203;-74
2022/07/06 01:38:28;;;;;;;5.37;2.60;;;;;;;;;;5010305;28;20269;-75
2022/07/06 01:40:54;;;;;;;3.60;2.20;;;;;;;;;;5010490;28;20187;-74
2022/07/06 01:43:19;;;;;;;4.90;3.50;;;;;;;;;;4997933;28;20700;-74
2022/07/06 01:45:44;;;;;;;23.17;3.63;;;;;;;;;;5012041;28;20209;-74
2022/07/06 01:48:09;;;;;;;3.47;1.80;;;;;;;;;;5010997;28;20281;-74
2022/07/06 01:50:34;;;;;;;3.40;2.07;;;;;;;;;;5007835;28;20211;-74
2022/07/06 01:53:00;;;;;;;2.77;2.00;;;;;;;;;;5010573;28;20244;-74
2022/07/06 01:55:25;;;;;;;3.83;2.40;;;;;;;;;;5011595;28;20179;-74
2022/07/06 01:57:50;;;;;;;3.13;2.13;;;;;;;;;;5006935;28;20746;-74
2022/07/06 02:00:15;;;;;;;5.13;3.13;;;;;;;;;;5010911;28;20209;-74
2022/07/06 02:02:40;;;;;;;5.53;3.37;;;;;;;;;;5009637;28;20175;-74
2022/07/06 02:05:06;;;;;;;4.90;2.47;;;;;;;;;;5012146;28;20179;-74
2022/07/06 02:07:31;;;;;;;3.63;2.00;;;;;;;;;;5006087;28;20186;-76
2022/07/06 02:09:56;;;;;;;4.37;2.00;;;;;;;;;;5004478;28;20191;-76
2022/07/06 02:12:21;;;;;;;3.50;2.53;;;;;;;;;;5010599;28;20186;-73
2022/07/06 02:14:47;;;;;;;5.37;2.40;;;;;;;;;;4995279;28;20175;-73
2022/07/06 02:17:12;;;;;;;4.37;1.97;;;;;;;;;;5010699;28;20286;-73
2022/07/06 02:19:37;;;;;;;6.40;3.57;;;;;;;;;;5010343;28;20641;-73
2022/07/06 02:22:03;;;;;;;5.90;3.43;;;;;;;;;;5011952;28;20201;-73
2022/07/06 02:24:28;;;;;;;2.90;2.33;;;;;;;;;;5006252;28;20645;-73
2022/07/06 02:26:53;;;;;;;4.20;2.20;;;;;;;;;;5009517;28;20653;-75
2022/07/06 02:29:19;;;;;;;2.47;1.97;;;;;;;;;;5009457;28;20406;-75
2022/07/06 02:31:44;;;;;;;5.00;3.37;;;;;;;;;;5009927;28;20700;-75
2022/07/06 02:34:10;;;;;;;4.23;2.30;;;;;;;;;;5010373;28;20269;-73
2022/07/06 02:36:35;;;;;;;4.13;2.10;;;;;;;;;;5011638;28;20198;-74
2022/07/06 02:39:00;;;;;;;4.33;2.27;;;;;;;;;;4998254;28;20178;-73
2022/07/06 02:41:25;;;;;;;4.60;2.00;;;;;;;;;;5011100;28;20573;-73
2022/07/06 02:43:50;;;;;;;3.43;1.80;;;;;;;;;;5010918;28;20206;-75
2022/07/06 02:46:15;;;;;;;2.40;2.20;;;;;;;;;;5010291;28;20179;-75
2022/07/06 02:48:41;;;;;;;2.83;2.20;;;;;;;;;;5009937;28;20175;-75
2022/07/06 02:51:06;;;;;;;4.47;2.07;;;;;;;;;;5011479;28;20215;-75
2022/07/06 02:53:31;;;;;;;2.80;2.00;;;;;;;;;;5010739;28;20573;-74
2022/07/06 02:55:56;;;;;;;4.47;1.80;;;;;;;;;;5007008;28;20657;-75
2022/07/06 02:58:21;;;;;;;4.73;2.10;;;;;;;;;;5010063;28;20198;-74
2022/07/06 03:00:47;;;;;;;2.93;1.90;;;;;;;;;;5007087;28;20203;-73
2022/07/06 03:03:12;;;;;;;3.13;2.00;;;;;;;;;;5011014;28;20183;-75
2022/07/06 03:05:37;;;;;;;6.20;2.00;;;;;;;;;;5010213;28;20190;-75
2022/07/06 03:08:02;;;;;;;3.00;1.87;;;;;;;;;;5008381;28;20232;-73
2022/07/06 03:10:27;;;;;;;2.70;1.90;;;;;;;;;;5009308;28;20202;-75
2022/07/06 03:12:53;;;;;;;4.87;2.03;;;;;;;;;;5009051;28;20309;-75
2022/07/06 03:15:18;;;;;;;3.73;2.03;;;;;;;;;;5010791;28;20187;-73
2022/07/06 03:17:43;;;;;;;2.53;1.90;;;;;;;;;;5008795;28;20237;-75
2022/07/06 03:20:08;;;;;;;3.13;1.80;;;;;;;;;;5010048;28;20194;-76
2022/07/06 03:22:33;;;;;;;3.13;1.77;;;;;;;;;;5010370;28;20229;-75
2022/07/06 03:24:59;;;;;;;3.50;2.03;;;;;;;;;;5011473;28;20248;-75
2022/07/06 03:27:24;;;;;;;3.23;1.90;;;;;;;;;;5006105;28;20183;-73
2022/07/06 03:29:49;;;;;;;2.63;1.60;;;;;;;;;;5006368;28;20232;-74
2022/07/06 03:32:14;;;;;;;1.63;1.50;;;;;;;;;;5008158;28;20222;-74
2022/07/06 03:34:39;;;;;;;1.87;1.40;;;;;;;;;;5011345;28;20179;-73
2022/07/06 03:37:05;;;;;;;3.23;1.60;;;;;;;;;;5010485;28;20257;-74
2022/07/06 03:39:31;;;;;;;1.50;1.40;;;;;;;;;;5008376;28;20193;-74
2022/07/06 03:41:56;;;;;;;4.80;1.83;;;;;;;;;;5010303;28;20191;-75
2022/07/06 03:44:21;;;;;;;2.60;1.25;;;;;;;;;;5007634;28;20194;-74
2022/07/06 03:46:46;;;;;;;3.30;1.70;;;;;;;;;;5010076;28;20266;-74
2022/07/06 03:49:11;;;;;;;3.42;1.70;;;;;;;;;;5009461;28;20186;-75
2022/07/06 03:51:37;;;;;;;3.38;1.65;;;;;;;;;;5010553;28;20249;-73
2022/07/06 03:54:02;;;;;;;4.22;1.85;;;;;;;;;;5008735;28;20179;-74
2022/07/06 03:56:28;;;;;;;2.00;1.33;;;;;;;;;;5007864;28;20207;-75
2022/07/06 03:58:53;;;;;;;3.03;2.17;;;;;;;;;;4999976;28;20238;-74
2022/07/06 04:01:18;;;;;;;3.15;1.48;;;;;;;;;;5011114;28;20191;-74
2022/07/06 04:03:44;;;;;;;3.38;1.50;;;;;;;;;;5013719;28;20253;-74
2022/07/06 04:06:09;;;;;;;3.28;1.55;;;;;;;;;;5011170;28;20484;-74
2022/07/06 04:08:35;;;;;;;5.78;3.08;;;;;;;;;;5006572;28;20201;-74
2022/07/06 04:11:00;;;;;;;2.08;1.60;;;;;;;;;;5011893;28;20195;-74
2022/07/06 04:13:25;;;;;;;4.60;1.73;;;;;;;;;;5011558;28;20663;-74
2022/07/06 04:15:50;;;;;;;6.80;3.20;;;;;;;;;;5011821;28;20175;-74
2022/07/06 04:18:16;;;;;;;4.15;2.78;;;;;;;;;;5011990;28;20210;-75
2022/07/06 04:20:41;;;;;;;3.78;1.60;;;;;;;;;;5012838;28;20273;-75
2022/07/06 04:23:06;;;;;;;3.38;1.23;;;;;;;;;;5012866;28;20179;-74
2022/07/06 04:25:31;;;;;;;3.28;1.73;;;;;;;;;;5011973;28;20538;-74
2022/07/06 04:27:57;;;;;;;1.98;1.50;;;;;;;;;;5007708;28;20269;-74
2022/07/06 04:30:22;;;;;;;3.33;1.10;;;;;;;;;;5013433;28;20269;-74
2022/07/06 04:32:47;;;;;;;2.33;1.65;;;;;;;;;;5012602;28;20262;-75
2022/07/06 04:35:12;;;;;;;5.35;1.50;;;;;;;;;;5014626;28;20270;-74
2022/07/06 04:37:38;;;;;;;1.58;1.25;;;;;;;;;;5010826;28;20334;-73
2022/07/06 04:40:03;;;;;;;4.35;1.55;;;;;;;;;;5011208;28;20179;-73
2022/07/06 04:42:28;;;;;;;2.45;1.30;;;;;;;;;;5012968;28;20209;-76
2022/07/06 04:44:54;;;;;;;2.70;1.83;;;;;;;;;;5011363;28;20187;-75
2022/07/06 04:47:19;;;;;;;2.38;1.40;;;;;;;;;;5012616;28;20233;-73
2022/07/06 04:49:44;;;;;;;2.53;1.13;;;;;;;;;;5012371;28;20673;-75
2022/07/06 04:52:09;;;;;;;1.50;1.20;;;;;;;;;;5012057;28;20218;-74
2022/07/06 04:54:34;;;;;;;4.57;1.73;;;;;;;;;;5007167;28;20191;-73
2022/07/06 04:57:00;;;;;;;1.50;1.02;;;;;;;;;;5009458;28;20832;-74
2022/07/06 04:59:25;;;;;;;2.33;1.13;;;;;;;;;;5011793;28;20659;-74
2022/07/06 05:01:50;;;;;;;3.10;0.80;;;;;;;;;;5011460;28;20198;-74
2022/07/06 05:04:18;;;;;;;3.78;1.20;;;;;;;;;;5010886;28;20228;-75
2022/07/06 05:06:43;;;;;;;1.98;0.90;;;;;;;;;;4991611;28;20209;-74
2022/07/06 05:09:08;;;;;;;1.77;1.15;;;;;;;;;;5005026;28;20183;-74
2022/07/06 05:11:33;;;;;;;3.20;1.30;;;;;;;;;;5010931;28;20202;-74
2022/07/06 05:13:58;;;;;;;1.40;1.00;;;;;;;;;;4988111;28;20195;-74
2022/07/06 05:16:24;;;;;;;2.87;1.23;;;;;;;;;;5003739;28;20194;-74
2022/07/06 05:18:49;;;;;;;1.10;0.93;;;;;;;;;;5007927;28;20492;-74
2022/07/06 05:21:14;;;;;;;1.35;1.00;;;;;;;;;;5011641;28;20576;-73
2022/07/06 05:23:39;;;;;;;1.42;0.82;;;;;;;;;;5011150;28;20553;-74
2022/07/06 05:26:05;;;;;;;1.00;0.68;;;;;;;;;;5009482;28;20455;-74
2022/07/06 05:28:30;;;;;;;1.20;0.98;;;;;;;;;;5007202;28;20266;-74
2022/07/06 05:30:55;;;;;;;2.50;1.00;;;;;;;;;;5012585;28;20701;-74
2022/07/06 05:33:20;;;;;;;1.37;0.70;;;;;;;;;;5011038;28;20187;-74
2022/07/06 05:35:45;;;;;;;4.25;1.30;;;;;;;;;;5009632;28;20810;-74
2022/07/06 05:38:11;;;;;;;2.45;1.10;;;;;;;;;;5009545;28;20206;-74
2022/07/06 05:40:36;;;;;;;3.78;1.00;;;;;;;;;;5009357;28;20199;-73
2022/07/06 05:43:01;;;;;;;2.03;0.98;;;;;;;;;;5009663;28;20179;-73
2022/07/06 05:45:26;;;;;;;1.98;1.00;;;;;;;;;;5010011;28;20185;-73
2022/07/06 05:50:55;;;;;;;1.88;1.00;;;;;;;;;;4970991;28;20208;-74
2022/07/06 05:53:20;;;;;;;1.45;1.35;;;;;;;;;;4968542;28;20188;-73
2022/07/06 05:55:46;;;;;;;3.50;1.27;;;;;;;;;;4990604;28;20570;-73
2022/07/06 05:58:11;;;;;;;1.83;1.42;;;;;;;;;;5007139;28;20214;-73
2022/07/06 06:00:36;;;;;;;4.07;1.38;;;;;;;;;;5009561;28;20209;-75
2022/07/06 06:03:02;;;;;;;2.63;1.60;;;;;;;;;;5009472;28;20179;-74
2022/07/06 06:05:27;;;;;;;1.77;1.20;;;;;;;;;;5006808;28;20250;-74
2022/07/06 06:07:52;;;;;;;2.25;1.13;;;;;;;;;;5003111;28;20426;-74
2022/07/06 06:10:18;;;;;;;3.15;1.88;;;;;;;;;;5008938;28;20313;-74
2022/07/06 06:12:44;;;;;;;3.42;1.10;;;;;;;;;;5008813;28;20190;-74
2022/07/06 06:15:09;;;;;;;1.48;0.90;;;;;;;;;;5011661;28;20183;-74
2022/07/06 06:17:35;;;;;;;1.52;0.70;;;;;;;;;;5006991;28;20221;-74
2022/07/06 06:20:00;;;;;;;1.67;1.13;;;;;;;;;;5009037;28;20229;-75
2022/07/06 06:22:26;;;;;;;1.70;0.70;;;;;;;;;;5002276;28;20231;-75
2022/07/06 06:24:51;;;;;;;4.95;1.30;;;;;;;;;;4985634;28;20232;-74
2022/07/06 06:27:16;;;;;;;3.03;0.77;;;;;;;;;;5003469;28;20264;-74
2022/07/06 06:29:43;;;;;;;3.33;1.05;;;;;;;;;;4987764;28;20186;-74
2022/07/06 06:32:09;;;;;;;6.00;0.85;;;;;;;;;;5010427;28;20736;-73
2022/07/06 06:34:34;;;;;;;2.65;0.60;;;;;;;;;;5010558;28;20258;-73
2022/07/06 06:36:59;;;;;;;5.83;0.70;;;;;;;;;;5011797;28;20202;-73
2022/07/06 06:39:24;;;;;;;6.50;2.42;;;;;;;;;;5010065;28;20811;-73
2022/07/06 06:41:49;;;;;;;3.53;0.57;;;;;;;;;;5011136;28;20217;-73
2022/07/06 06:44:14;;;;;;;3.67;0.70;;;;;;;;;;5011183;28;20400;-74
2022/07/06 06:46:40;;;;;;;2.05;1.13;;;;;;;;;;5011594;28;20568;-73
2022/07/06 06:49:05;;;;;;;1.55;0.75;;;;;;;;;;5011235;28;20190;-74
2022/07/06 06:51:31;;;;;;;3.07;1.47;;;;;;;;;;5009171;28;20252;-73
2022/07/06 06:53:56;;;;;;;3.80;0.70;;;;;;;;;;4998078;28;21018;-73
2022/07/06 06:56:21;;;;;;;1.70;0.70;;;;;;;;;;5008485;28;20191;-73
2022/07/06 06:58:46;;;;;;;3.97;0.70;;;;;;;;;;5006385;28;20494;-73
2022/07/06 07:01:11;;;;;;;0.70;0.30;;;;;;;;;;5003720;28;22374;-73
2022/07/06 07:03:36;;;;;;;2.90;0.60;;;;;;;;;;5005917;28;20266;-73
2022/07/06 07:06:02;;;;;;;2.70;0.50;;;;;;;;;;5007160;28;20428;-74
2022/07/06 07:08:27;;;;;;;2.92;1.15;;;;;;;;;;4993389;28;20934;-73
2022/07/06 07:10:52;;;;;;;3.65;0.50;;;;;;;;;;4999940;28;20209;-73
2022/07/06 07:13:17;;;;;;;2.50;0.93;;;;;;;;;;5009272;28;20175;-73
2022/07/06 07:15:43;;;;;;;4.68;0.90;;;;;;;;;;5006550;28;20641;-73
2022/07/06 07:18:08;;;;;;;1.05;0.40;;;;;;;;;;5006476;28;20685;-74
2022/07/06 07:20:33;;;;;;;1.88;0.40;;;;;;;;;;4991926;28;20237;-73
2022/07/06 07:22:59;;;;;;;4.65;0.60;;;;;;;;;;5008090;28;20182;-73
2022/07/06 07:25:24;;;;;;;1.38;0.50;;;;;;;;;;5010938;28;20171;-73
2022/07/06 07:27:49;;;;;;;1.33;0.47;;;;;;;;;;5005448;28;20191;-73
2022/07/06 07:30:15;;;;;;;1.48;0.52;;;;;;;;;;5011099;28;20659;-75
2022/07/06 07:32:40;;;;;;;2.97;0.35;;;;;;;;;;5010071;28;20191;-74
2022/07/06 07:35:06;;;;;;;2.10;0.40;;;;;;;;;;5015065;28;20175;-73
2022/07/06 07:37:31;;;;;;;2.15;0.40;;;;;;;;;;5012792;28;20688;-73
2022/07/06 07:39:56;;;;;;;1.70;0.50;;;;;;;;;;5013791;28;20183;-75
2022/07/06 07:42:21;;;;;;;2.70;0.40;;;;;;;;;;5012877;28;20452;-74
2022/07/06 07:44:46;;;;;;;1.37;0.47;;;;;;;;;;5013291;28;20936;-73
2022/07/06 07:47:11;;;;;;;2.80;0.40;;;;;;;;;;5009967;28;20432;-74
2022/07/06 07:49:37;;;;;;;3.13;0.33;;;;;;;;;;5009873;28;20190;-74
2022/07/06 07:52:02;;;;;;;1.23;0.20;;;;;;;;;;5009342;28;20480;-73
2022/07/06 07:54:27;;;;;;;1.25;0.30;;;;;;;;;;5012611;28;20194;-74
2022/07/06 07:56:54;;;;;;;1.38;0.10;;;;;;;;;;5012522;28;20190;-73
2022/07/06 07:59:19;;;;;;;1.15;0.20;;;;;;;;;;5013022;28;20598;-74
2022/07/06 08:01:44;;;;;;;3.50;0.33;;;;;;;;;;5010555;28;20277;-73
2022/07/06 08:04:09;;;;;;;0.93;0.37;;;;;;;;;;5011889;28;20428;-73
2022/07/06 08:06:34;;;;;;;1.25;0.43;;;;;;;;;;5007560;28;20938;-73
2022/07/06 08:09:00;;;;;;;1.92;0.50;;;;;;;;;;5010112;28;20179;-73
2022/07/06 08:11:25;;;;;;;1.17;0.35;;;;;;;;;;5006430;28;20202;-73
2022/07/06 08:13:50;;;;;;;1.35;0.30;;;;;;;;;;5013411;28;20202;-74
2022/07/06 08:16:16;;;;;;;0.93;0.30;;;;;;;;;;5011077;28;20183;-74
2022/07/06 08:18:41;;;;;;;1.90;0.30;;;;;;;;;;5007363;28;20217;-74
2022/07/06 08:21:07;;;;;;;2.83;0.45;;;;;;;;;;5007268;28;20195;-74
2022/07/06 08:23:34;;;;;;;1.33;0.40;;;;;;;;;;5010940;28;20232;-74
2022/07/06 08:25:59;;;;;;;1.15;0.20;;;;;;;;;;5012692;28;20606;-74
2022/07/06 08:28:25;;;;;;;1.25;0.50;;;;;;;;;;5006287;28;20179;-75
2022/07/06 08:30:50;;;;;;;1.93;0.40;;;;;;;;;;5013214;28;20650;-73
2022/07/06 08:33:15;;;;;;;0.57;0.13;;;;;;;;;;5011398;28;20494;-73
2022/07/06 08:35:40;;;;;;;0.77;0.22;;;;;;;;;;5012679;28;20428;-73
2022/07/06 08:38:06;;;;;;;0.57;0.30;;;;;;;;;;5012801;28;20209;-73
2022/07/06 08:40:32;;;;;;;1.30;0.38;;;;;;;;;;5012468;28;21283;-73
2022/07/06 08:42:59;;;;;;;1.02;0.50;;;;;;;;;;5012519;28;20183;-73
2022/07/06 08:45:25;;;;;;;0.80;0.32;;;;;;;;;;5012676;28;20186;-73
2022/07/06 08:47:50;;;;;;;1.60;0.30;;;;;;;;;;5011458;28;20187;-72
2022/07/06 08:50:16;;;;;;;3.05;0.30;;;;;;;;;;5013568;28;20230;-73
2022/07/06 08:52:42;;;;;;;2.47;0.43;;;;;;;;;;4993181;28;20211;-73
2022/07/06 08:55:08;;;;;;;1.90;0.22;;;;;;;;;;5013170;28;20560;-73
2022/07/06 08:57:33;;;;;;;1.20;0.30;;;;;;;;;;5011356;28;20198;-75
2022/07/06 08:59:59;;;;;;;0.90;0.20;;;;;;;;;;4992989;28;20191;-73
2022/07/06 09:02:25;;;;;;;1.95;0.30;;;;;;;;;;5011405;28;20189;-73
2022/07/06 09:04:53;;;;;;;2.15;0.38;;;;;;;;;;5013081;28;20182;-73
2022/07/06 09:07:19;;;;;;;0.30;0.20;;;;;;;;;;5011192;28;20680;-73
2022/07/06 09:09:45;;;;;;;0.45;0.20;;;;;;;;;;5011987;28;20183;-73
2022/07/06 09:12:13;;;;;;;1.17;0.20;;;;;;;;;;5008495;28;20199;-73
2022/07/06 09:14:38;;;;;;;2.80;1.33;;;;;;;;;;5010516;28;20273;-73
2022/07/06 09:17:04;;;;;;;0.50;0.20;;;;;;;;;;5010415;28;20290;-73
2022/07/06 09:19:33;;;;;;;1.17;0.30;;;;;;;;;;5002817;28;20918;-73
2022/07/06 09:21:59;;;;;;;0.47;0.20;;;;;;;;;;5005680;28;20199;-74
2022/07/06 09:24:26;;;;;;;1.13;0.35;;;;;;;;;;4990348;28;20182;-73
2022/07/06 09:26:54;;;;;;;2.25;0.35;;;;;;;;;;5010198;28;20545;-73
2022/07/06 09:29:26;;;;;;;2.50;0.63;;;;;;;;;;5006224;28;20687;-73
2022/07/06 09:31:59;;;;;;;2.83;0.50;;;;;;;;;;5011895;28;20297;-73
2022/07/06 09:34:24;;;;;;;1.33;0.30;;;;;;;;;;5005528;28;20187;-73
2022/07/06 09:36:50;;;;;;;0.30;0.20;;;;;;;;;;5013380;28;20206;-73
2022/07/06 09:39:26;;;;;;;0.50;0.30;;;;;;;;;;5010665;28;20645;-73
2022/07/06 09:41:55;;;;;;;0.65;0.38;;;;;;;;;;5011467;28;20679;-73
2022/07/06 09:44:21;;;;;;;2.53;0.35;;;;;;;;;;5010921;28;20187;-73
2022/07/06 09:46:47;;;;;;;1.30;0.30;;;;;;;;;;5008942;28;20179;-73
2022/07/06 09:49:12;;;;;;;1.15;0.20;;;;;;;;;;5011163;28;20193;-73
2022/07/06 09:51:38;;;;;;;1.00;0.30;;;;;;;;;;5010160;28;20194;-74
2022/07/06 09:54:05;;;;;;;0.77;0.30;;;;;;;;;;5011479;28;20270;-73
2022/07/06 09:56:37;;;;;;;0.57;0.25;;;;;;;;;;5007549;28;20187;-73
2022/07/06 09:59:07;;;;;;;1.42;0.30;;;;;;;;;;5009512;28;20175;-73
2022/07/06 10:01:32;;;;;;;1.27;0.30;;;;;;;;;;5006964;28;20195;-73
2022/07/06 10:03:58;;;;;;;0.85;0.30;;;;;;;;;;5011403;28;20830;-73
2022/07/06 10:06:24;;;;;;;1.03;0.23;;;;;;;;;;5011122;28;20583;-73
2022/07/06 10:08:49;;;;;;;1.30;0.35;;;;;;;;;;5009751;28;20424;-73
2022/07/06 10:11:15;;;;;;;0.70;0.28;;;;;;;;;;5000936;28;20214;-73
2022/07/06 10:13:42;;;;;;;0.65;0.20;;;;;;;;;;4991477;28;20178;-73
2022/07/06 10:16:07;;;;;;;3.28;0.50;;;;;;;;;;5012198;28;20179;-73
2022/07/06 10:18:33;;;;;;;3.35;0.40;;;;;;;;;;5006039;28;20250;-73
2022/07/06 10:20:59;;;;;;;1.00;0.40;;;;;;;;;;5008498;28;20206;-73
2022/07/06 10:23:24;;;;;;;3.30;0.50;;;;;;;;;;5005921;28;20170;-73
2022/07/06 10:25:51;;;;;;;1.08;0.30;;;;;;;;;;5007571;28;20273;-73
2022/07/06 10:28:17;;;;;;;2.00;0.30;;;;;;;;;;5008748;28;20182;-73
2022/07/06 10:30:43;;;;;;;1.60;0.30;;;;;;;;;;5011160;28;20221;-73
2022/07/06 10:33:09;;;;;;;1.42;0.47;;;;;;;;;;5010830;28;20190;-72
2022/07/06 10:35:34;;;;;;;1.30;0.30;;;;;;;;;;5011258;28;20265;-73
2022/07/06 10:38:03;;;;;;;0.50;0.30;;;;;;;;;;5010136;28;20211;-73
2022/07/06 10:43:19;;;;;;;1.83;0.50;;;;;;;;;;5011150;28;20198;-73
2022/07/06 10:45:44;;;;;;;1.35;0.38;;;;;;;;;;5011259;28;20179;-73
2022/07/06 10:48:12;;;;;;;2.88;0.45;;;;;;;;;;5010929;28;20179;-73
2022/07/06 10:50:56;;;;;;;0.90;0.20;;;;;;;;;;5010026;28;20230;-73
2022/07/06 10:53:23;;;;;;;0.77;0.30;;;;;;;;;;4993499;28;20184;-73
2022/07/06 10:55:51;;;;;;;1.13;0.25;;;;;;;;;;5010211;28;20210;-73
2022/07/06 10:58:35;;;;;;;0.77;0.25;;;;;;;;;;5009843;28;20263;-73
2022/07/06 11:01:00;;;;;;;0.63;0.30;;;;;;;;;;5002324;28;20198;-73
2022/07/06 11:03:31;;;;;;;0.80;0.35;;;;;;;;;;5007125;28;20194;-73
2022/07/06 11:06:16;;;;;;;1.92;0.30;;;;;;;;;;5006440;28;20531;-73
2022/07/06 11:08:42;;;;;;;0.38;0.30;;;;;;;;;;5006489;28;20214;-73
2022/07/06 11:11:11;;;;;;;1.40;0.35;;;;;;;;;;5009140;28;20253;-73
2022/07/06 11:13:57;;;;;;;0.85;0.40;;;;;;;;;;4993720;28;20209;-73
2022/07/06 11:16:25;;;;;;;2.70;0.30;;;;;;;;;;4994437;28;20198;-73
2022/07/06 11:19:01;;;;;;;1.45;0.45;;;;;;;;;;4996741;28;20704;-73
2022/07/06 11:21:37;;;;;;;1.73;0.50;;;;;;;;;;5013570;28;20190;-74
2022/07/06 11:24:03;;;;;;;1.42;0.28;;;;;;;;;;4995893;28;20262;-73
2022/07/06 11:26:29;;;;;;;0.52;0.20;;;;;;;;;;5011372;28;20214;-73
2022/07/06 11:28:55;;;;;;;0.70;0.20;;;;;;;;;;5006191;28;20240;-72
2022/07/06 11:31:20;;;;;;;0.93;0.50;;;;;;;;;;5013464;28;20747;-73
2022/07/06 11:33:46;;;;;;;2.33;0.40;;;;;;;;;;5011491;28;20253;-73
2022/07/06 11:36:12;;;;;;;1.15;0.30;;;;;;;;;;5010435;28;20205;-73
2022/07/06 11:38:37;;;;;;;1.60;0.47;;;;;;;;;;5010068;28;20286;-73
2022/07/06 11:41:02;;;;;;;1.03;0.43;;;;;;;;;;5010787;28;20838;-73
2022/07/06 11:43:27;;;;;;;2.13;0.37;;;;;;;;;;5012401;28;20804;-73
2022/07/06 11:45:52;;;;;;;4.40;0.50;;;;;;;;;;5011185;28;20179;-73
2022/07/06 11:48:17;;;;;;;2.63;0.63;;;;;;;;;;5006335;28;20689;-73
2022/07/06 11:50:43;;;;;;;0.63;0.30;;;;;;;;;;5008711;28;20253;-73
2022/07/06 11:53:08;;;;;;;3.30;0.33;;;;;;;;;;5011642;28;20206;-73
2022/07/06 11:55:33;;;;;;;2.10;0.70;;;;;;;;;;5009224;28;20432;-73
2022/07/06 11:57:59;;;;;;;2.07;0.40;;;;;;;;;;5007503;28;20648;-73
2022/07/06 12:00:25;;;;;;;2.55;0.50;;;;;;;;;;4997869;28;20195;-73
2022/07/06 12:03:02;;;;;;;3.55;0.60;;;;;;;;;;5011633;28;20179;-73
2022/07/06 12:05:31;;;;;;;1.67;0.40;;;;;;;;;;5013032;28;20194;-72
2022/07/06 12:08:05;;;;;;;1.40;0.30;;;;;;;;;;5010057;28;20233;-73
2022/07/06 12:10:35;;;;;;;0.47;0.22;;;;;;;;;;5004279;28;20283;-73
2022/07/06 12:13:04;;;;;;;5.80;0.70;;;;;;;;;;5012198;28;20175;-73
2022/07/06 12:15:29;;;;;;;2.28;0.82;;;;;;;;;;5012987;28;20560;-73
2022/07/06 12:17:54;;;;;;;2.22;0.55;;;;;;;;;;5011379;28;20191;-73
2022/07/06 12:20:20;;;;;;;1.13;0.43;;;;;;;;;;4996552;28;20252;-73
2022/07/06 12:22:45;;;;;;;1.60;0.60;;;;;;;;;;5009570;28;20417;-73
2022/07/06 12:25:10;;;;;;;2.27;0.60;;;;;;;;;;5006400;28;20322;-73
2022/07/06 12:27:35;;;;;;;2.20;0.40;;;;;;;;;;5002055;28;20930;-73
2022/07/06 12:30:10;;;;;;;2.37;0.50;;;;;;;;;;5010972;28;20432;-73
2022/07/06 12:32:36;;;;;;;2.00;0.47;;;;;;;;;;5011524;28;20450;-72
2022/07/06 12:35:11;;;;;;;1.23;0.30;;;;;;;;;;5011271;28;20183;-72
2022/07/06 12:37:36;;;;;;;2.70;0.50;;;;;;;;;;5008262;28;20700;-72
2022/07/06 12:40:02;;;;;;;4.50;0.98;;;;;;;;;;5011423;28;20189;-72
2022/07/06 12:42:28;;;;;;;3.42;0.50;;;;;;;;;;5013177;28;20175;-73
2022/07/06 12:44:53;;;;;;;4.13;0.47;;;;;;;;;;5010959;28;20171;-73
2022/07/06 12:47:21;;;;;;;2.33;0.50;;;;;;;;;;5011129;28;20198;-72
2022/07/06 12:49:46;;;;;;;1.63;0.30;;;;;;;;;;5009992;28;20179;-73
2022/07/06 12:52:12;;;;;;;2.10;0.60;;;;;;;;;;4994299;28;20249;-72
2022/07/06 12:54:47;;;;;;;3.05;0.60;;;;;;;;;;5009240;28;20184;-72
2022/07/06 12:57:26;;;;;;;1.25;0.52;;;;;;;;;;5008814;28;20214;-72
2022/07/06 12:59:54;;;;;;;1.55;0.45;;;;;;;;;;5009477;28;20190;-72
2022/07/06 13:02:36;;;;;;;4.07;0.70;;;;;;;;;;5012496;28;20175;-72
2022/07/06 13:05:03;;;;;;;1.02;0.40;;;;;;;;;;5011244;28;20186;-73
2022/07/06 13:07:31;;;;;;;0.68;0.50;;;;;;;;;;4997892;28;20703;-72
2022/07/06 13:09:57;;;;;;;1.23;0.50;;;;;;;;;;5008322;28;20182;-71
2022/07/06 13:12:22;;;;;;;1.83;0.73;;;;;;;;;;5009541;28;20183;-71
2022/07/06 13:14:48;;;;;;;1.67;0.73;;;;;;;;;;5009650;28;20567;-72
2022/07/06 13:17:13;;;;;;;2.78;0.70;;;;;;;;;;5008259;28;20214;-71
2022/07/06 13:19:38;;;;;;;2.28;0.93;;;;;;;;;;5009520;28;20215;-72
2022/07/06 13:22:03;;;;;;;1.60;0.50;;;;;;;;;;5011307;28;20203;-72
2022/07/06 13:24:29;;;;;;;2.38;0.70;;;;;;;;;;5011745;28;20408;-72
2022/07/06 13:26:55;;;;;;;4.50;1.10;;;;;;;;;;5000905;28;20182;-72
2022/07/06 13:29:20;;;;;;;4.20;0.93;;;;;;;;;;5008533;28;20186;-72
2022/07/06 13:31:45;;;;;;;3.28;1.00;;;;;;;;;;5007050;28;20685;-72
2022/07/06 13:34:13;;;;;;;4.22;0.70;;;;;;;;;;5007668;28;20183;-72
2022/07/06 13:36:38;;;;;;;2.13;0.90;;;;;;;;;;5001105;28;20187;-71
2022/07/06 13:39:03;;;;;;;3.43;0.60;;;;;;;;;;5005048;28;20684;-72
2022/07/06 13:41:29;;;;;;;3.17;0.70;;;;;;;;;;5007469;28;20456;-72
2022/07/06 13:43:54;;;;;;;3.75;0.85;;;;;;;;;;5003787;28;20583;-72
2022/07/06 13:46:21;;;;;;;5.05;1.23;;;;;;;;;;5008895;28;20709;-72
2022/07/06 13:48:46;;;;;;;3.13;0.80;;;;;;;;;;5006201;28;20171;-71
2022/07/06 13:51:12;;;;;;;7.85;1.08;;;;;;;;;;5006420;28;20206;-72
2022/07/06 13:53:38;;;;;;;9.32;1.58;;;;;;;;;;5006040;28;20680;-72
2022/07/06 13:56:03;;;;;;;5.65;1.58;;;;;;;;;;5009653;28;20222;-72
2022/07/06 13:58:28;;;;;;;4.07;1.02;;;;;;;;;;5010365;28;20541;-72
2022/07/06 14:00:54;;;;;;;5.87;0.90;;;;;;;;;;4998952;28;20210;-73
2022/07/06 14:03:20;;;;;;;5.75;1.30;;;;;;;;;;5008059;28;20440;-72
2022/07/06 14:05:45;;;;;;;3.22;1.00;;;;;;;;;;4993393;28;20306;-72
2022/07/06 14:08:10;;;;;;;2.70;1.00;;;;;;;;;;5011631;28;20788;-73
2022/07/06 14:10:35;;;;;;;3.70;0.95;;;;;;;;;;5008273;28;20460;-72
2022/07/06 14:13:00;;;;;;;1.77;0.60;;;;;;;;;;5008083;28;20195;-71
2022/07/06 14:15:26;;;;;;;3.73;1.20;;;;;;;;;;5010300;28;20524;-72
2022/07/06 14:17:51;;;;;;;2.15;0.68;;;;;;;;;;5008470;28;20451;-72
2022/07/06 14:20:18;;;;;;;1.45;0.60;;;;;;;;;;5007999;28;20663;-72
2022/07/06 14:22:43;;;;;;;5.15;0.90;;;;;;;;;;5006935;28;20187;-72
2022/07/06 14:25:09;;;;;;;3.78;0.73;;;;;;;;;;5009689;28;21004;-72
2022/07/06 14:27:34;;;;;;;4.30;1.20;;;;;;;;;;5006590;28;20261;-72
2022/07/06 14:29:59;;;;;;;4.78;1.00;;;;;;;;;;5008243;28;20193;-72
2022/07/06 14:32:24;;;;;;;5.30;0.90;;;;;;;;;;5035589;23;20269;-70
2022/07/06 14:34:50;;;;;;;2.67;1.00;;;;;;;;;;5031292;28;20955;-71
2022/07/06 14:37:15;;;;;;;2.83;0.85;;;;;;;;;;5030129;28;20213;-71
2022/07/06 14:39:41;;;;;;;1.50;0.88;;;;;;;;;;5010876;28;20180;-70
2022/07/06 14:42:06;;;;;;;3.88;1.00;;;;;;;;;;5027211;28;20205;-71
2022/07/06 14:44:31;;;;;;;2.97;1.10;;;;;;;;;;5030773;28;20216;-71